Terminal Aerodrome Forecast
Issued by NWS

Home | Current Version | Previous Version | Text Only | Print | Product List | Glossary On
Versions: 1 2 3 4 5 6 7 8 9 10 11 12
649
FTUS42 KTBW 191732
TAFPIE
TAF
KPIE 191732Z 1918/2018 01006KT P6SM SCT030 BKN050
     FM192000 36009KT P6SM SCT050
     FM200200 07006KT P6SM FEW050 SCT080
     FM201500 05007KT P6SM FEW035 SCT080=

USA.gov is the U.S. government's official web portal to all federal, state and local government web resources and services.